createdAt,value
2019-05-23T00:01:48.878Z,81.31
2019-05-23T00:04:41.741Z,81.32
2019-05-23T00:07:31.368Z,81.27
2019-05-23T00:10:28.935Z,81.27
2019-05-23T00:13:03.999Z,81.25
2019-05-23T00:15:44.480Z,81.00
2019-05-23T00:18:34.246Z,81.05
2019-05-23T00:21:24.013Z,81.16
2019-05-23T00:23:54.557Z,81.14
2019-05-23T00:26:44.790Z,81.53
2019-05-23T00:29:14.906Z,81.60
2019-05-23T00:31:51.333Z,81.42
2019-05-23T00:34:22.667Z,81.51
2019-05-23T00:36:54.463Z,81.48
2019-05-23T00:39:28.969Z,81.25
2019-05-23T00:41:59.620Z,81.17
2019-05-23T00:44:30.418Z,81.12
2019-05-23T00:47:00.337Z,81.14
2019-05-23T00:49:30.555Z,81.20
2019-05-23T00:52:01.485Z,81.14
2019-05-23T00:54:32.426Z,81.12
2019-05-23T00:57:03.499Z,81.19
2019-05-23T00:59:33.884Z,81.24
2019-05-23T01:02:06.309Z,80.98
2019-05-23T01:04:37.297Z,81.01
2019-05-23T01:07:09.675Z,81.17
2019-05-23T01:09:39.689Z,81.28
2019-05-23T01:12:09.857Z,81.31
2019-05-23T01:14:40.468Z,81.28
2019-05-23T01:17:11.433Z,81.33
2019-05-23T01:19:42.298Z,81.46
2019-05-23T01:22:14.006Z,81.38
2019-05-23T01:24:46.838Z,81.46
2019-05-23T01:27:19.474Z,81.67
2019-05-23T01:29:51.172Z,81.73
2019-05-23T01:32:25.528Z,81.83
2019-05-23T01:34:56.618Z,81.96
2019-05-23T01:37:30.723Z,82.00
2019-05-23T01:40:02.045Z,82.01
2019-05-23T01:42:33.675Z,82.09
2019-05-23T01:45:05.479Z,82.10
2019-05-23T01:47:35.428Z,82.25
2019-05-23T01:50:06.317Z,82.08
2019-05-23T01:52:36.295Z,82.06
2019-05-23T01:55:08.001Z,82.11
2019-05-23T01:57:39.014Z,82.18
2019-05-23T02:00:11.969Z,82.06
2019-05-23T02:02:42.895Z,82.01
2019-05-23T02:05:14.141Z,82.06
2019-05-23T02:07:44.270Z,81.98
2019-05-23T02:10:15.747Z,82.10
2019-05-23T02:12:46.099Z,82.19
2019-05-23T02:15:16.881Z,82.01
2019-05-23T02:17:47.791Z,82.04
2019-05-23T02:20:20.203Z,82.09
2019-05-23T02:22:51.527Z,82.24
2019-05-23T02:25:22.907Z,82.07
2019-05-23T02:27:53.328Z,82.19
2019-05-23T02:30:34.274Z,82.25
2019-05-23T02:32:56.557Z,82.32
2019-05-23T02:35:26.889Z,82.47
2019-05-23T02:38:22.231Z,82.49
2019-05-23T02:41:20.361Z,82.43
2019-05-23T02:43:55.216Z,82.47
2019-05-23T02:46:38.175Z,82.48
2019-05-23T02:49:11.228Z,82.42
2019-05-23T02:51:42.270Z,82.35
2019-05-23T02:54:13.990Z,82.54
2019-05-23T02:56:45.921Z,82.40
2019-05-23T02:59:23.768Z,82.40
2019-05-23T03:02:18.615Z,82.37
2019-05-23T03:04:48.463Z,82.36
2019-05-23T03:07:21.995Z,82.28
2019-05-23T03:09:52.391Z,82.34
2019-05-23T03:12:25.354Z,82.25
2019-05-23T03:14:55.010Z,82.48
2019-05-23T03:17:48.679Z,82.63
2019-05-23T03:20:21.237Z,82.62
2019-05-23T03:22:56.182Z,82.74
2019-05-23T03:26:16.423Z,82.71
2019-05-23T03:28:48.362Z,82.61
2019-05-23T03:31:31.918Z,82.80
2019-05-23T03:34:00.123Z,82.85
2019-05-23T03:36:30.274Z,82.67
2019-05-23T03:39:00.213Z,82.55
2019-05-23T03:41:30.989Z,82.37
2019-05-23T03:44:04.054Z,82.46
2019-05-23T03:46:35.381Z,82.48
2019-05-23T03:49:06.711Z,82.42
2019-05-23T03:51:37.122Z,82.47
2019-05-23T03:54:08.502Z,82.62
2019-05-23T03:56:38.320Z,82.65
2019-05-23T03:59:08.421Z,82.81
2019-05-23T04:01:47.835Z,83.02
2019-05-23T04:04:12.721Z,83.20
2019-05-23T04:06:47.477Z,83.44
2019-05-23T04:09:17.872Z,83.24
2019-05-23T04:11:47.910Z,83.53
2019-05-23T04:14:17.966Z,83.87
2019-05-23T04:16:48.472Z,83.78
2019-05-23T04:19:18.717Z,83.84
2019-05-23T04:21:48.912Z,83.85
2019-05-23T04:24:18.899Z,83.45
2019-05-23T04:26:50.388Z,83.29
2019-05-23T04:29:20.806Z,83.31
2019-05-23T04:32:05.873Z,83.12
2019-05-23T04:34:22.691Z,83.26
2019-05-23T04:36:52.752Z,83.28
2019-05-23T04:39:23.292Z,83.32
2019-05-23T04:41:53.870Z,83.40
2019-05-23T04:44:24.242Z,83.34
2019-05-23T04:46:55.887Z,83.39
2019-05-23T04:49:25.784Z,83.62
2019-05-23T04:51:55.930Z,83.67
2019-05-23T04:54:25.809Z,83.75
2019-05-23T04:56:56.424Z,83.89
2019-05-23T04:59:26.470Z,83.95
2019-05-23T05:01:58.885Z,84.02
2019-05-23T05:04:29.515Z,84.05
2019-05-23T05:06:59.787Z,83.86
2019-05-23T05:09:32.100Z,83.74
2019-05-23T05:12:04.548Z,83.83
2019-05-23T05:14:34.651Z,83.71
2019-05-23T05:17:06.364Z,83.74
2019-05-23T05:19:36.646Z,83.54
2019-05-23T05:22:06.904Z,83.29
2019-05-23T05:24:40.123Z,83.54
2019-05-23T05:27:09.060Z,83.99
2019-05-23T05:29:39.394Z,84.03
2019-05-23T05:32:09.907Z,84.03
2019-05-23T05:34:40.266Z,83.86
2019-05-23T05:37:10.227Z,83.71
2019-05-23T05:39:41.469Z,84.06
2019-05-23T05:42:12.120Z,84.23
2019-05-23T05:44:42.447Z,84.24
2019-05-23T05:47:12.893Z,84.38
2019-05-23T05:49:42.874Z,84.39
2019-05-23T05:52:13.314Z,84.10
2019-05-23T05:54:43.511Z,84.13
2019-05-23T05:57:13.483Z,84.33
2019-05-23T05:59:43.770Z,84.46
2019-05-23T06:02:15.453Z,84.31
2019-05-23T06:04:45.568Z,84.42
2019-05-23T06:07:37.468Z,84.36
2019-05-23T06:10:12.152Z,84.20
2019-05-23T06:12:43.605Z,84.17
2019-05-23T06:15:14.305Z,83.92
2019-05-23T06:17:44.327Z,83.94
2019-05-23T06:20:14.995Z,84.15
2019-05-23T06:22:46.194Z,84.14
2019-05-23T06:25:16.228Z,83.84
2019-05-23T06:27:46.539Z,84.00
2019-05-23T06:30:18.775Z,83.88
2019-05-23T06:32:49.094Z,83.87
2019-05-23T06:35:20.675Z,83.58
2019-05-23T06:37:50.836Z,83.57
2019-05-23T06:40:20.969Z,83.17
2019-05-23T06:42:51.275Z,82.92
2019-05-23T06:45:22.738Z,83.38
2019-05-23T06:47:53.538Z,84.02
2019-05-23T06:50:25.322Z,83.86
2019-05-23T06:52:55.314Z,82.62
2019-05-23T06:55:25.338Z,81.88
2019-05-23T06:57:55.871Z,82.30
2019-05-23T07:00:28.249Z,82.14
2019-05-23T07:02:58.234Z,82.05
2019-05-23T07:05:32.883Z,81.79
2019-05-23T07:08:03.745Z,81.91
2019-05-23T07:10:34.967Z,82.26
2019-05-23T07:13:05.585Z,82.28
2019-05-23T07:15:35.758Z,81.70
2019-05-23T07:18:06.062Z,80.88
2019-05-23T07:20:36.332Z,80.43
2019-05-23T07:23:09.213Z,80.50
2019-05-23T07:25:39.538Z,81.35
2019-05-23T07:28:09.510Z,81.60
2019-05-23T07:30:39.523Z,81.12
2019-05-23T07:33:10.180Z,80.10
2019-05-23T07:35:40.167Z,79.64
2019-05-23T07:38:10.236Z,79.87
2019-05-23T07:40:40.665Z,79.20
2019-05-23T07:43:12.122Z,78.87
2019-05-23T07:45:48.047Z,78.38
2019-05-23T07:48:18.303Z,77.88
2019-05-23T07:50:48.857Z,77.66
2019-05-23T07:53:43.725Z,78.20
2019-05-23T07:56:14.658Z,77.45
2019-05-23T07:58:44.640Z,77.25
2019-05-23T08:01:16.816Z,76.78
2019-05-23T08:03:49.603Z,76.75
2019-05-23T08:06:19.895Z,76.99
2019-05-23T08:08:50.663Z,76.40
2019-05-23T08:11:21.250Z,75.27
2019-05-23T08:13:51.935Z,74.87
2019-05-23T08:16:22.261Z,74.53
2019-05-23T08:18:52.426Z,74.64
2019-05-23T08:21:22.956Z,73.62
2019-05-23T08:23:52.910Z,73.78
2019-05-23T08:26:23.647Z,73.64
2019-05-23T08:29:23.786Z,73.02
2019-05-23T08:31:27.118Z,71.11
2019-05-23T08:33:58.465Z,70.25
2019-05-23T08:36:30.340Z,70.05
2019-05-23T08:39:00.810Z,68.80
2019-05-23T08:41:33.431Z,68.40
2019-05-23T08:44:03.588Z,68.38
2019-05-23T08:46:33.617Z,67.62
2019-05-23T08:49:04.695Z,66.89
2019-05-23T08:51:35.198Z,66.48
2019-05-23T08:54:05.727Z,66.40
2019-05-23T08:56:35.753Z,65.94
2019-05-23T08:59:07.740Z,65.12
2019-05-23T09:01:40.279Z,65.19
2019-05-23T09:04:10.960Z,65.25
2019-05-23T09:06:42.193Z,65.56
2019-05-23T09:09:28.341Z,65.16
2019-05-23T09:11:46.669Z,64.34
2019-05-23T09:14:17.014Z,64.25
2019-05-23T09:16:46.954Z,63.33
2019-05-23T09:19:17.557Z,62.73
2019-05-23T09:21:48.034Z,61.33
2019-05-23T09:24:18.169Z,60.96
2019-05-23T09:26:49.081Z,60.28
2019-05-23T09:29:19.194Z,60.72
2019-05-23T09:31:49.693Z,60.90
2019-05-23T09:34:19.887Z,61.69
2019-05-23T09:36:49.958Z,61.94
2019-05-23T09:39:21.578Z,62.24
2019-05-23T09:41:51.583Z,62.15
2019-05-23T09:44:21.649Z,62.75
2019-05-23T09:46:51.698Z,63.74
2019-05-23T09:49:21.958Z,63.57
2019-05-23T09:51:55.652Z,62.57
2019-05-23T09:54:24.835Z,61.98
2019-05-23T09:56:55.232Z,63.04
2019-05-23T09:59:26.748Z,63.11
2019-05-23T10:01:57.172Z,62.50
2019-05-23T10:04:27.086Z,61.77
2019-05-23T10:06:57.175Z,61.93
2019-05-23T10:09:27.440Z,60.59
2019-05-23T10:11:57.515Z,60.38
2019-05-23T10:14:31.188Z,61.10
2019-05-23T10:17:01.216Z,60.11
2019-05-23T10:19:32.090Z,59.98
2019-05-23T10:22:02.127Z,59.55
2019-05-23T10:24:32.073Z,60.46
2019-05-23T10:27:02.570Z,60.56
2019-05-23T10:29:32.516Z,62.65
2019-05-23T10:32:04.789Z,61.68
2019-05-23T10:34:35.178Z,60.30
2019-05-23T10:37:08.084Z,59.85
2019-05-23T10:39:40.925Z,59.06
2019-05-23T10:42:10.965Z,60.17
2019-05-23T10:44:44.785Z,58.33
2019-05-23T10:47:12.622Z,57.18
2019-05-23T10:49:42.885Z,56.90
2019-05-23T10:52:13.274Z,57.28
2019-05-23T10:54:43.288Z,55.78
2019-05-23T10:57:13.313Z,56.12
2019-05-23T10:59:43.254Z,56.31
2019-05-23T11:02:14.493Z,55.66
2019-05-23T11:04:44.511Z,55.56
2019-05-23T11:07:14.488Z,55.34
2019-05-23T11:09:44.726Z,54.39
2019-05-23T11:12:15.545Z,55.11
2019-05-23T11:14:45.586Z,55.81
2019-05-23T11:17:16.405Z,55.61
2019-05-23T11:19:46.400Z,56.82
2019-05-23T11:22:16.386Z,55.99
2019-05-23T11:24:46.468Z,55.48
2019-05-23T11:27:17.170Z,57.20
2019-05-23T11:29:47.200Z,57.64
2019-05-23T11:32:20.358Z,55.40
2019-05-23T11:34:49.703Z,55.55
2019-05-23T11:37:19.973Z,55.45
2019-05-23T11:39:51.110Z,55.21
2019-05-23T11:42:21.696Z,56.01
2019-05-23T11:44:51.911Z,56.29
2019-05-23T11:47:22.143Z,55.39
2019-05-23T11:49:52.528Z,54.16
2019-05-23T11:52:22.521Z,54.39
2019-05-23T11:54:53.163Z,54.85
2019-05-23T11:57:23.738Z,54.63
2019-05-23T11:59:54.146Z,55.19
2019-05-23T12:02:29.662Z,57.84
2019-05-23T12:05:00.815Z,56.35
2019-05-23T12:07:33.076Z,55.53
2019-05-23T12:10:03.217Z,57.75
2019-05-23T12:12:33.396Z,55.91
2019-05-23T12:15:05.020Z,52.98
2019-05-23T12:17:35.080Z,51.81
2019-05-23T12:20:08.348Z,52.68
2019-05-23T12:22:38.430Z,52.32
2019-05-23T12:25:20.965Z,53.98
2019-05-23T12:27:40.977Z,53.12
2019-05-23T12:30:13.948Z,53.51
2019-05-23T12:32:44.942Z,51.52
2019-05-23T12:35:13.946Z,51.21
2019-05-23T12:37:44.005Z,49.54
2019-05-23T12:40:14.665Z,49.88
2019-05-23T12:42:44.606Z,49.31
2019-05-23T12:45:16.026Z,50.64
2019-05-23T12:47:57.890Z,50.29
2019-05-23T12:50:31.848Z,49.72
2019-05-23T12:53:01.870Z,50.25
2019-05-23T12:55:31.907Z,49.19
2019-05-23T12:58:02.189Z,48.67
2019-05-23T13:00:50.037Z,49.90
2019-05-23T13:03:20.321Z,49.73
2019-05-23T13:05:50.910Z,49.65
2019-05-23T13:08:21.170Z,49.66
2019-05-23T13:10:51.216Z,49.18
2019-05-23T13:13:21.692Z,49.48
2019-05-23T13:15:51.944Z,49.87
2019-05-23T13:18:22.133Z,48.98
2019-05-23T13:20:52.817Z,49.41
2019-05-23T13:23:23.856Z,48.48
2019-05-23T13:25:53.849Z,49.34
2019-05-23T13:28:24.249Z,50.72
2019-05-23T13:30:54.241Z,49.66
2019-05-23T13:33:25.176Z,48.69
2019-05-23T13:35:55.393Z,49.72
2019-05-23T13:38:25.409Z,48.33
2019-05-23T13:40:55.399Z,49.09
2019-05-23T13:43:25.543Z,48.26
2019-05-23T13:45:55.919Z,47.64
2019-05-23T13:48:28.170Z,46.97
2019-05-23T13:50:58.633Z,46.42
2019-05-23T13:53:29.191Z,45.63
2019-05-23T13:55:59.156Z,45.12
2019-05-23T13:58:32.619Z,43.75
2019-05-23T14:01:08.555Z,44.47
2019-05-23T14:03:35.494Z,45.21
2019-05-23T14:06:07.889Z,46.51
2019-05-23T14:08:38.270Z,47.05
2019-05-23T14:11:08.445Z,48.65
2019-05-23T14:13:38.687Z,47.42
2019-05-23T14:16:08.990Z,47.42
2019-05-23T14:18:39.925Z,45.93
2019-05-23T14:21:10.539Z,45.93
2019-05-23T14:23:40.513Z,45.75
2019-05-23T14:26:11.653Z,46.15
2019-05-23T14:28:42.479Z,44.71
2019-05-23T14:31:18.090Z,44.00
2019-05-23T14:34:06.201Z,43.33
2019-05-23T14:36:52.874Z,44.06
2019-05-23T14:39:31.082Z,43.58
2019-05-23T14:42:07.254Z,43.91
2019-05-23T14:44:37.275Z,44.93
2019-05-23T14:47:42.457Z,43.94
2019-05-23T14:50:27.550Z,45.00
2019-05-23T14:52:58.308Z,44.86
2019-05-23T14:55:28.581Z,42.73
2019-05-23T14:57:57.664Z,41.81
2019-05-23T15:00:27.697Z,41.71
2019-05-23T15:02:56.712Z,42.51
2019-05-23T15:05:26.279Z,44.55
2019-05-23T15:07:56.120Z,44.57
2019-05-23T15:10:25.590Z,43.67
2019-05-23T15:12:54.449Z,42.65
2019-05-23T15:15:23.411Z,42.11
2019-05-23T15:17:52.702Z,42.22
2019-05-23T15:20:21.642Z,42.48
2019-05-23T15:22:51.187Z,41.90
2019-05-23T15:25:20.444Z,40.58
2019-05-23T15:27:49.306Z,41.00
2019-05-23T15:30:19.054Z,40.59
2019-05-23T15:32:47.999Z,39.92
2019-05-23T15:35:16.942Z,40.93
2019-05-23T15:37:45.838Z,41.59
2019-05-23T15:40:15.891Z,41.61
2019-05-23T15:42:44.924Z,41.63
2019-05-23T15:45:15.296Z,40.42
2019-05-23T15:47:45.211Z,39.83
2019-05-23T15:50:17.197Z,39.23
2019-05-23T15:53:02.176Z,39.63
2019-05-23T15:55:54.157Z,40.23
2019-05-23T15:58:46.254Z,40.89
2019-05-23T16:01:25.956Z,41.23
2019-05-23T16:04:03.034Z,40.89
2019-05-23T16:06:34.619Z,40.43
2019-05-23T16:09:07.757Z,40.62
2019-05-23T16:11:37.789Z,40.00
2019-05-23T16:14:08.293Z,40.63
2019-05-23T16:16:38.232Z,39.93
2019-05-23T16:19:08.312Z,40.17
2019-05-23T16:21:40.697Z,40.48
2019-05-23T16:24:11.839Z,39.82
2019-05-23T16:26:42.332Z,40.47
2019-05-23T16:29:14.173Z,40.33
2019-05-23T16:31:44.747Z,41.07
2019-05-23T16:34:15.038Z,42.09
2019-05-23T16:36:45.997Z,41.22
2019-05-23T16:39:17.444Z,41.33
2019-05-23T16:41:47.886Z,41.69
2019-05-23T16:44:18.611Z,41.67
2019-05-23T16:46:48.628Z,41.17
2019-05-23T16:49:19.071Z,40.46
2019-05-23T16:51:49.438Z,40.75
2019-05-23T16:54:22.209Z,40.70
2019-05-23T16:57:06.997Z,40.32
2019-05-23T16:59:58.976Z,40.87
2019-05-23T17:02:44.745Z,40.04
2019-05-23T17:05:23.646Z,40.24
2019-05-23T17:08:11.005Z,41.07
2019-05-23T17:10:52.112Z,40.65
2019-05-23T17:13:28.940Z,41.39
2019-05-23T17:16:12.246Z,42.20
2019-05-23T17:18:49.089Z,40.80
2019-05-23T17:21:39.551Z,41.49
2019-05-23T17:24:30.899Z,40.71
2019-05-23T17:27:23.981Z,39.97
2019-05-23T17:30:00.384Z,38.64
2019-05-23T17:32:33.344Z,38.12
2019-05-23T17:35:03.438Z,37.66
2019-05-23T17:37:33.515Z,37.85
2019-05-23T17:40:03.888Z,37.44
2019-05-23T17:42:34.796Z,35.85
2019-05-23T17:45:05.044Z,35.69
2019-05-23T17:47:35.754Z,36.15
2019-05-23T17:50:06.497Z,36.61
2019-05-23T17:52:36.432Z,36.05
2019-05-23T17:55:06.958Z,36.72
2019-05-23T17:57:37.235Z,37.32
2019-05-23T18:00:07.989Z,37.53
2019-05-23T18:02:38.396Z,36.91
2019-05-23T18:05:09.339Z,37.65
2019-05-23T18:07:40.019Z,37.48
2019-05-23T18:10:11.082Z,38.11
2019-05-23T18:12:41.151Z,40.38
2019-05-23T18:15:13.507Z,41.25
2019-05-23T18:17:43.386Z,41.25
2019-05-23T18:20:15.383Z,41.96
2019-05-23T18:22:46.692Z,42.71
2019-05-23T18:25:17.083Z,43.90
2019-05-23T18:27:47.338Z,44.61
2019-05-23T18:30:30.591Z,45.19
2019-05-23T18:33:02.508Z,45.64
2019-05-23T18:35:33.159Z,46.29
2019-05-23T18:38:05.014Z,46.87
2019-05-23T18:40:35.322Z,48.35
2019-05-23T18:43:06.277Z,48.35
2019-05-23T18:45:38.572Z,47.62
2019-05-23T18:48:09.636Z,47.29
2019-05-23T18:50:40.600Z,47.43
2019-05-23T18:53:11.100Z,47.31
2019-05-23T18:55:41.305Z,47.46
2019-05-23T18:58:11.412Z,47.46
2019-05-23T19:01:03.958Z,47.82
2019-05-23T19:03:35.841Z,47.10
2019-05-23T19:06:06.248Z,47.19
2019-05-23T19:08:36.312Z,47.78
2019-05-23T19:11:20.003Z,48.14
2019-05-23T19:13:39.310Z,48.29
2019-05-23T19:16:09.358Z,48.99
2019-05-23T19:18:40.746Z,48.78
2019-05-23T19:21:13.062Z,48.54
2019-05-23T19:23:45.776Z,48.54
2019-05-23T19:26:35.583Z,49.40
2019-05-23T19:29:08.861Z,49.33
2019-05-23T19:31:38.986Z,49.75
2019-05-23T19:34:08.971Z,50.14
2019-05-23T19:36:39.500Z,49.57
2019-05-23T19:39:10.353Z,49.77
2019-05-23T19:41:40.551Z,49.92
2019-05-23T19:44:10.838Z,49.86
2019-05-23T19:46:41.053Z,49.66
2019-05-23T19:49:12.814Z,50.90
2019-05-23T19:51:44.260Z,50.90
2019-05-23T19:54:14.729Z,51.62
2019-05-23T19:56:44.800Z,51.81
2019-05-23T19:59:15.281Z,51.46
2019-05-23T20:02:03.258Z,52.17
2019-05-23T20:04:36.065Z,52.70
2019-05-23T20:07:06.657Z,53.51
2019-05-23T20:09:36.610Z,54.15
2019-05-23T20:12:06.676Z,54.81
2019-05-23T20:14:38.280Z,55.03
2019-05-23T20:17:08.481Z,54.64
2019-05-23T20:19:39.204Z,54.69
2019-05-23T20:22:10.238Z,54.85
2019-05-23T20:24:40.585Z,54.67
2019-05-23T20:27:10.881Z,54.10
2019-05-23T20:29:41.083Z,54.19
2019-05-23T20:32:11.923Z,54.42
2019-05-23T20:34:42.163Z,54.25
2019-05-23T20:37:12.414Z,54.25
2019-05-23T20:39:42.368Z,54.37
2019-05-23T20:42:12.654Z,55.24
2019-05-23T20:44:42.508Z,54.94
2019-05-23T20:47:13.356Z,54.14
2019-05-23T20:49:43.413Z,54.34
2019-05-23T20:52:13.724Z,54.42
2019-05-23T20:54:43.677Z,54.36
2019-05-23T20:57:13.643Z,54.40
2019-05-23T20:59:43.595Z,54.56
2019-05-23T21:02:13.559Z,55.06
2019-05-23T21:04:43.420Z,55.97
2019-05-23T21:07:13.302Z,56.86
2019-05-23T21:09:43.734Z,57.04
2019-05-23T21:12:28.858Z,57.19
2019-05-23T21:14:45.267Z,57.62
2019-05-23T21:17:15.228Z,57.82
2019-05-23T21:19:45.173Z,58.02
2019-05-23T21:22:15.119Z,58.28
2019-05-23T21:24:44.989Z,58.68
2019-05-23T21:27:15.028Z,58.66
2019-05-23T21:29:45.217Z,58.49
2019-05-23T21:32:15.236Z,58.66
2019-05-23T21:34:45.183Z,58.75
2019-05-23T21:37:15.459Z,59.22
2019-05-23T21:39:45.469Z,59.39
2019-05-23T21:42:15.353Z,59.03
2019-05-23T21:44:45.493Z,59.41
2019-05-23T21:47:15.448Z,59.66
2019-05-23T21:49:45.406Z,59.78
2019-05-23T21:52:15.272Z,60.07
2019-05-23T21:54:45.229Z,60.52
2019-05-23T21:57:16.355Z,61.08
2019-05-23T21:59:46.391Z,61.10
2019-05-23T22:02:24.175Z,61.69
2019-05-23T22:05:00.520Z,61.64
2019-05-23T22:07:30.460Z,61.80
2019-05-23T22:10:00.317Z,62.05
2019-05-23T22:12:30.520Z,61.91
2019-05-23T22:15:00.835Z,61.81
2019-05-23T22:17:30.989Z,61.98
2019-05-23T22:20:01.171Z,62.07
2019-05-23T22:22:31.584Z,62.75
2019-05-23T22:25:01.889Z,62.79
2019-05-23T22:27:31.995Z,62.76
2019-05-23T22:30:02.327Z,62.82
2019-05-23T22:32:33.734Z,63.02
2019-05-23T22:35:09.971Z,63.45
2019-05-23T22:37:39.845Z,63.82
2019-05-23T22:40:09.809Z,63.74
2019-05-23T22:42:40.936Z,63.79
2019-05-23T22:45:15.170Z,63.44
2019-05-23T22:47:45.483Z,63.72
2019-05-23T22:50:15.785Z,63.51
2019-05-23T22:52:45.736Z,63.57
2019-05-23T22:55:15.677Z,64.04
2019-05-23T22:57:45.615Z,63.72
2019-05-23T23:00:18.108Z,63.62
2019-05-23T23:02:48.040Z,63.82
2019-05-23T23:05:17.993Z,63.72
2019-05-23T23:07:48.224Z,63.86
2019-05-23T23:10:18.765Z,64.12
2019-05-23T23:12:48.750Z,64.53
2019-05-23T23:15:18.790Z,65.04
2019-05-23T23:17:49.022Z,65.52
2019-05-23T23:20:18.943Z,65.05
2019-05-23T23:22:48.880Z,65.11
2019-05-23T23:25:18.814Z,65.16
2019-05-23T23:27:48.814Z,65.22
2019-05-23T23:30:23.935Z,65.63
2019-05-23T23:32:54.203Z,66.35
2019-05-23T23:35:24.150Z,66.34
2019-05-23T23:37:54.019Z,66.37
2019-05-23T23:40:24.059Z,66.22
2019-05-23T23:42:55.063Z,66.48
2019-05-23T23:45:42.690Z,66.61
2019-05-23T23:48:30.533Z,66.78
2019-05-23T23:51:18.179Z,66.56
2019-05-23T23:54:06.223Z,66.49
2019-05-23T23:56:54.157Z,66.45
2019-05-23T23:59:23.185Z,66.47
